Time;durP1;ratioP1;P1;durP2;ratioP2;P2;SDS_P1;SDS_P2;PMS_P1;PMS_P2;Temp;Humidity;BMP_temperature;BMP_pressure;BME280_temperature;BME280_humidity;BME280_pressure;Samples;Min_cycle;Max_cycle;Signal;HPM_P1;HPM_P2
2024/01/26 00:01:29;;;;;;;0.50;0.40;;;8.30;99.90;;;;;;5077864;28;20519;-81
2024/01/26 00:03:57;;;;;;;1.47;0.50;;;8.30;99.90;;;;;;5077907;28;20444;-80
2024/01/26 00:06:24;;;;;;;0.50;0.50;;;8.40;99.90;;;;;;5078003;28;20453;-81
2024/01/26 00:08:51;;;;;;;0.70;0.70;;;8.40;99.90;;;;;;5077383;28;20848;-81
2024/01/26 00:11:19;;;;;;;0.90;0.90;;;8.40;99.90;;;;;;5078200;28;20452;-81
2024/01/26 00:13:46;;;;;;;0.50;0.40;;;8.40;99.90;;;;;;5078183;28;20521;-81
2024/01/26 00:16:13;;;;;;;1.37;0.60;;;8.40;99.90;;;;;;5078019;28;20445;-81
2024/01/26 00:18:40;;;;;;;1.03;0.50;;;8.40;99.90;;;;;;5077759;28;20475;-81
2024/01/26 00:21:08;;;;;;;0.50;0.50;;;8.40;99.90;;;;;;5077727;28;20534;-81
2024/01/26 00:23:35;;;;;;;2.67;0.50;;;8.40;99.90;;;;;;5078071;28;20921;-81
2024/01/26 00:26:02;;;;;;;1.07;0.53;;;8.40;99.90;;;;;;5077857;28;20452;-81
2024/01/26 00:28:29;;;;;;;0.73;0.40;;;8.40;99.90;;;;;;5077939;28;20547;-81
2024/01/26 00:30:55;;;;;;;1.50;0.50;;;8.30;99.90;;;;;;5077511;28;20436;-81
2024/01/26 00:33:22;;;;;;;0.50;0.43;;;8.20;99.90;;;;;;5077769;28;20444;-81
2024/01/26 00:35:49;;;;;;;0.30;0.30;;;8.20;99.90;;;;;;5078685;28;20440;-81
2024/01/26 00:38:17;;;;;;;0.50;0.50;;;8.30;99.90;;;;;;5079633;28;20444;-81
2024/01/26 00:40:44;;;;;;;0.30;0.30;;;8.20;99.90;;;;;;5081357;28;20476;-81
2024/01/26 00:43:10;;;;;;;0.50;0.40;;;8.20;99.90;;;;;;5079647;28;20449;-81
2024/01/26 00:45:37;;;;;;;0.30;0.30;;;8.20;99.90;;;;;;5079048;28;20440;-81
2024/01/26 00:48:04;;;;;;;0.60;0.40;;;8.20;99.90;;;;;;5078321;28;20535;-81
2024/01/26 00:50:31;;;;;;;0.40;0.40;;;8.10;99.90;;;;;;5077703;28;21006;-81
2024/01/26 00:52:58;;;;;;;0.30;0.30;;;8.10;99.90;;;;;;5077474;28;20456;-81
2024/01/26 00:55:29;;;;;;;0.40;0.40;;;8.00;99.90;;;;;;5078942;28;20452;-81
2024/01/26 00:57:55;;;;;;;0.63;0.40;;;8.00;99.90;;;;;;5078253;28;20421;-81
2024/01/26 01:00:24;;;;;;;1.70;0.40;;;7.90;99.90;;;;;;5077953;28;20463;-81
2024/01/26 01:02:50;;;;;;;0.40;0.30;;;7.80;99.90;;;;;;5077560;28;20882;-81
2024/01/26 01:05:17;;;;;;;0.63;0.50;;;7.80;99.90;;;;;;5076774;28;20451;-81
2024/01/26 01:07:44;;;;;;;0.33;0.30;;;7.80;99.90;;;;;;5076820;28;20455;-81
2024/01/26 01:10:11;;;;;;;0.53;0.37;;;7.90;99.90;;;;;;5077236;28;20836;-81
2024/01/26 01:12:40;;;;;;;0.40;0.33;;;7.90;99.90;;;;;;5077820;28;20813;-81
2024/01/26 01:15:11;;;;;;;0.50;0.50;;;7.90;99.90;;;;;;5077740;28;20452;-81
2024/01/26 01:17:38;;;;;;;0.70;0.53;;;8.00;99.90;;;;;;5077775;28;20433;-81
2024/01/26 01:20:05;;;;;;;0.40;0.40;;;8.00;99.90;;;;;;5077050;28;20475;-81
2024/01/26 01:22:32;;;;;;;0.30;0.30;;;8.10;99.90;;;;;;5077812;28;20477;-81
2024/01/26 01:24:59;;;;;;;0.40;0.30;;;8.10;99.90;;;;;;5077314;28;20934;-81
2024/01/26 01:27:26;;;;;;;0.40;0.40;;;8.20;99.90;;;;;;5077445;28;20453;-81
2024/01/26 01:29:54;;;;;;;0.87;0.40;;;8.20;99.90;;;;;;5077748;28;20468;-81
2024/01/26 01:32:21;;;;;;;0.50;0.40;;;8.20;99.90;;;;;;5078189;28;20444;-81
2024/01/26 01:34:48;;;;;;;1.57;0.93;;;8.30;99.90;;;;;;5077374;28;20449;-81
2024/01/26 01:37:14;;;;;;;0.87;0.60;;;8.30;99.90;;;;;;5077446;28;20824;-81
2024/01/26 01:39:41;;;;;;;0.60;0.60;;;8.30;99.90;;;;;;5077662;28;20473;-81
2024/01/26 01:42:13;;;;;;;0.53;0.53;;;8.20;99.90;;;;;;5077257;28;20839;-82
2024/01/26 01:44:40;;;;;;;1.03;0.60;;;8.30;99.90;;;;;;5088903;28;20405;-78
2024/01/26 01:47:10;;;;;;;0.50;0.50;;;8.20;99.90;;;;;;5082684;28;20911;-80
2024/01/26 01:49:38;;;;;;;0.83;0.43;;;8.20;99.90;;;;;;5073622;28;20883;-80
2024/01/26 01:52:06;;;;;;;0.67;0.53;;;8.20;99.90;;;;;;5073456;28;20439;-81
2024/01/26 01:54:34;;;;;;;0.40;0.40;;;8.20;99.90;;;;;;5073088;28;20456;-80
2024/01/26 01:57:03;;;;;;;1.07;0.50;;;8.20;99.90;;;;;;5073524;28;20444;-81
2024/01/26 01:59:30;;;;;;;0.50;0.30;;;8.20;99.90;;;;;;5073522;28;20473;-81
2024/01/26 02:01:56;;;;;;;1.00;0.40;;;8.20;99.90;;;;;;5073305;28;20480;-80
2024/01/26 02:04:24;;;;;;;2.40;0.70;;;8.10;99.90;;;;;;5073430;28;20790;-80
2024/01/26 02:06:55;;;;;;;0.40;0.40;;;8.20;99.90;;;;;;5073417;28;20452;-81
2024/01/26 02:09:22;;;;;;;0.43;0.43;;;8.20;99.90;;;;;;5073118;28;20495;-80
2024/01/26 02:11:49;;;;;;;0.97;0.43;;;8.20;99.90;;;;;;5073641;28;20511;-81
2024/01/26 02:14:15;;;;;;;0.30;0.30;;;8.20;99.90;;;;;;5073794;28;20441;-81
2024/01/26 02:16:53;;;;;;;0.40;0.40;;;8.20;99.90;;;;;;5076320;28;20459;-81
2024/01/26 02:19:20;;;;;;;0.40;0.40;;;8.20;99.90;;;;;;5077105;28;20876;-80
2024/01/26 02:21:48;;;;;;;0.40;0.30;;;8.20;99.90;;;;;;5076915;28;20479;-80
2024/01/26 02:24:16;;;;;;;0.40;0.40;;;8.20;99.90;;;;;;5076840;28;20437;-81
2024/01/26 02:26:43;;;;;;;0.40;0.30;;;8.20;99.90;;;;;;5077023;28;20922;-81
2024/01/26 02:29:10;;;;;;;0.40;0.30;;;8.20;99.90;;;;;;5078316;28;20475;-81
2024/01/26 02:31:37;;;;;;;0.30;0.30;;;8.20;99.90;;;;;;5079872;28;20444;-81
2024/01/26 02:34:03;;;;;;;0.83;0.40;;;8.20;99.90;;;;;;5081291;28;20425;-81
2024/01/26 02:36:32;;;;;;;0.30;0.30;;;8.20;99.90;;;;;;5081411;28;20968;-81
2024/01/26 02:38:59;;;;;;;0.40;0.33;;;8.20;99.90;;;;;;5081344;28;20503;-81
2024/01/26 02:41:29;;;;;;;0.50;0.30;;;8.20;99.90;;;;;;5080993;28;20778;-81
2024/01/26 02:43:56;;;;;;;0.30;0.30;;;8.20;99.90;;;;;;5080738;28;20524;-81
2024/01/26 02:46:23;;;;;;;0.80;0.40;;;8.20;99.90;;;;;;5081021;28;20445;-82
2024/01/26 02:48:50;;;;;;;0.40;0.33;;;8.20;99.90;;;;;;5081589;28;20463;-81
2024/01/26 02:51:16;;;;;;;0.40;0.30;;;8.20;99.90;;;;;;5079631;28;20557;-81
2024/01/26 02:53:43;;;;;;;0.30;0.30;;;8.10;99.90;;;;;;5080609;28;20942;-81
2024/01/26 02:56:10;;;;;;;0.70;0.43;;;8.10;99.90;;;;;;5080107;28;20444;-81
2024/01/26 02:58:38;;;;;;;0.50;0.40;;;8.20;99.90;;;;;;5079888;28;20449;-81
2024/01/26 03:01:05;;;;;;;0.37;0.30;;;8.20;99.90;;;;;;5079677;28;20445;-81
2024/01/26 03:03:32;;;;;;;0.50;0.40;;;8.20;99.90;;;;;;5080162;28;20487;-82
2024/01/26 03:05:58;;;;;;;0.40;0.30;;;8.20;99.90;;;;;;5079686;28;20453;-81
2024/01/26 03:08:25;;;;;;;1.73;0.37;;;8.20;99.90;;;;;;5079289;28;20472;-81
2024/01/26 03:10:52;;;;;;;0.50;0.50;;;8.10;99.90;;;;;;5079583;28;20448;-81
2024/01/26 03:13:19;;;;;;;0.60;0.50;;;8.10;99.90;;;;;;5079272;28;20441;-81
2024/01/26 03:15:50;;;;;;;0.40;0.40;;;8.10;99.90;;;;;;5079137;28;20482;-81
2024/01/26 03:18:17;;;;;;;0.50;0.50;;;8.10;99.90;;;;;;5079463;28;20444;-81
2024/01/26 03:20:45;;;;;;;0.40;0.40;;;8.00;99.90;;;;;;5078585;28;20461;-81
2024/01/26 03:23:11;;;;;;;0.40;0.40;;;8.10;99.90;;;;;;5078933;28;20495;-81
2024/01/26 03:25:41;;;;;;;0.40;0.40;;;8.00;99.90;;;;;;5078498;28;20449;-81
2024/01/26 03:28:08;;;;;;;0.50;0.40;;;8.00;99.90;;;;;;5078797;28;20456;-81
2024/01/26 03:30:35;;;;;;;0.40;0.40;;;8.00;99.90;;;;;;5078394;28;20465;-81
2024/01/26 03:33:04;;;;;;;0.53;0.53;;;8.00;99.90;;;;;;5078178;28;20460;-81
2024/01/26 03:35:30;;;;;;;0.50;0.50;;;7.90;99.90;;;;;;5078657;28;20934;-81
2024/01/26 03:37:57;;;;;;;0.60;0.60;;;8.00;99.90;;;;;;5078867;28;20455;-82
2024/01/26 03:40:24;;;;;;;0.53;0.53;;;8.00;99.90;;;;;;5078007;28;20834;-81
2024/01/26 03:42:51;;;;;;;0.40;0.40;;;8.00;99.90;;;;;;5078346;28;20487;-81
2024/01/26 03:45:18;;;;;;;0.40;0.40;;;8.00;99.90;;;;;;5078432;28;20812;-81
2024/01/26 03:47:45;;;;;;;0.43;0.43;;;8.00;99.90;;;;;;5078339;28;20471;-81
2024/01/26 03:50:13;;;;;;;0.40;0.40;;;7.90;99.90;;;;;;5077948;28;20472;-81
2024/01/26 03:52:40;;;;;;;0.40;0.40;;;8.00;99.90;;;;;;5078338;28;20441;-81
2024/01/26 03:55:08;;;;;;;0.50;0.50;;;8.00;99.90;;;;;;5078526;28;20445;-81
2024/01/26 03:57:35;;;;;;;0.97;0.40;;;8.00;99.90;;;;;;5092087;28;20455;-80
2024/01/26 04:00:04;;;;;;;0.40;0.40;;;7.90;99.90;;;;;;5081095;28;20457;-80
2024/01/26 04:02:30;;;;;;;0.50;0.50;;;7.90;99.90;;;;;;5074924;28;20526;-80
2024/01/26 04:04:57;;;;;;;0.30;0.30;;;7.90;99.90;;;;;;5074648;28;20786;-80
2024/01/26 04:07:25;;;;;;;1.17;0.50;;;7.90;99.90;;;;;;5074575;28;20445;-81
2024/01/26 04:09:52;;;;;;;0.30;0.30;;;7.90;99.90;;;;;;5074391;28;20488;-81
2024/01/26 04:12:19;;;;;;;1.03;0.53;;;7.90;99.90;;;;;;5074268;28;20934;-81
2024/01/26 04:14:45;;;;;;;0.40;0.33;;;7.90;99.90;;;;;;5074592;28;20452;-81
2024/01/26 04:17:12;;;;;;;0.40;0.40;;;8.00;99.90;;;;;;5074641;28;20791;-81
2024/01/26 04:19:39;;;;;;;0.60;0.40;;;8.00;99.90;;;;;;5076584;28;20449;-80
2024/01/26 04:22:06;;;;;;;0.60;0.40;;;8.00;99.90;;;;;;5079589;28;20510;-81
2024/01/26 04:24:35;;;;;;;0.30;0.30;;;7.90;99.90;;;;;;5090173;28;20448;-80
2024/01/26 04:27:02;;;;;;;0.40;0.40;;;7.90;99.90;;;;;;5084340;28;20452;-81
2024/01/26 04:29:28;;;;;;;0.40;0.40;;;8.00;99.90;;;;;;5078800;28;20465;-81
2024/01/26 04:31:55;;;;;;;0.83;0.67;;;8.00;99.90;;;;;;5079347;28;20445;-81
2024/01/26 04:34:22;;;;;;;0.83;0.50;;;7.90;99.90;;;;;;5079922;28;20441;-81
2024/01/26 04:36:49;;;;;;;1.37;0.70;;;7.90;99.90;;;;;;5078627;28;20444;-82
2024/01/26 04:39:16;;;;;;;0.60;0.60;;;7.80;99.90;;;;;;5078383;28;20524;-81
2024/01/26 04:41:44;;;;;;;0.77;0.40;;;7.90;99.90;;;;;;5078805;28;20441;-82
2024/01/26 04:44:11;;;;;;;0.50;0.50;;;7.90;99.90;;;;;;5078607;28;20957;-82
2024/01/26 04:46:38;;;;;;;0.40;0.33;;;7.90;99.90;;;;;;5078184;28;20440;-81
2024/01/26 04:49:05;;;;;;;0.33;0.30;;;7.90;99.90;;;;;;5077979;28;20490;-81
2024/01/26 04:51:32;;;;;;;0.37;0.30;;;7.90;99.90;;;;;;5077998;28;20433;-81
2024/01/26 04:53:58;;;;;;;0.40;0.30;;;7.90;99.90;;;;;;5078013;28;20441;-82
2024/01/26 04:56:25;;;;;;;0.83;0.30;;;7.90;99.90;;;;;;5077624;28;20950;-82
2024/01/26 04:58:53;;;;;;;0.40;0.30;;;7.80;99.90;;;;;;5077397;28;20456;-82
2024/01/26 05:01:20;;;;;;;0.70;0.37;;;7.80;99.90;;;;;;5077652;28;20436;-81
2024/01/26 05:03:47;;;;;;;0.40;0.40;;;7.80;99.90;;;;;;5077897;28;20476;-81
2024/01/26 05:06:14;;;;;;;0.60;0.60;;;7.80;99.90;;;;;;5077838;28;20444;-81
2024/01/26 05:08:40;;;;;;;0.50;0.50;;;7.80;99.90;;;;;;5076959;28;20484;-82
2024/01/26 05:11:08;;;;;;;0.40;0.37;;;7.90;99.90;;;;;;5077308;28;20469;-81
2024/01/26 05:13:35;;;;;;;0.90;0.33;;;7.90;99.90;;;;;;5076715;28;20862;-81
2024/01/26 05:16:03;;;;;;;0.40;0.40;;;8.00;99.90;;;;;;5076525;28;20931;-81
2024/01/26 05:18:30;;;;;;;0.50;0.40;;;7.90;99.90;;;;;;5077327;28;20532;-81
2024/01/26 05:20:56;;;;;;;0.40;0.40;;;7.90;99.90;;;;;;5076771;28;20445;-81
2024/01/26 05:23:23;;;;;;;0.70;0.40;;;7.90;99.90;;;;;;5076793;28;20567;-81
2024/01/26 05:25:50;;;;;;;0.50;0.43;;;8.00;99.90;;;;;;5076071;28;20455;-82
2024/01/26 05:28:16;;;;;;;0.33;0.33;;;8.00;99.90;;;;;;5076832;28;20456;-81
2024/01/26 05:30:43;;;;;;;0.40;0.40;;;8.00;99.90;;;;;;5077104;28;20457;-81
2024/01/26 05:33:11;;;;;;;0.30;0.30;;;8.10;99.90;;;;;;5076373;28;20960;-81
2024/01/26 05:35:38;;;;;;;0.50;0.30;;;8.10;99.90;;;;;;5076763;28;20451;-81
2024/01/26 05:38:05;;;;;;;0.70;0.50;;;8.10;99.90;;;;;;5076549;28;20479;-81
2024/01/26 05:40:32;;;;;;;0.50;0.50;;;8.00;99.90;;;;;;5077453;28;20472;-81
2024/01/26 05:42:59;;;;;;;0.30;0.30;;;8.00;99.90;;;;;;5077368;28;20480;-81
2024/01/26 05:45:26;;;;;;;0.50;0.43;;;7.90;99.90;;;;;;5077648;28;20930;-81
2024/01/26 05:47:52;;;;;;;0.50;0.40;;;7.90;99.90;;;;;;5077446;28;20452;-81
2024/01/26 05:50:21;;;;;;;0.77;0.47;;;7.80;99.90;;;;;;5079324;28;20468;-81
2024/01/26 05:52:48;;;;;;;1.53;0.57;;;7.70;99.90;;;;;;5080874;28;20447;-81
2024/01/26 05:55:15;;;;;;;3.60;0.50;;;7.80;99.90;;;;;;5081077;28;20433;-81
2024/01/26 05:57:43;;;;;;;0.40;0.40;;;7.80;99.90;;;;;;5080554;28;20455;-81
2024/01/26 06:00:10;;;;;;;0.80;0.60;;;7.70;99.90;;;;;;5081525;28;20479;-81
2024/01/26 06:02:37;;;;;;;0.70;0.50;;;7.70;99.90;;;;;;5080959;28;20998;-81
2024/01/26 06:05:04;;;;;;;0.30;0.20;;;7.60;99.90;;;;;;5080789;28;20437;-81
2024/01/26 06:07:32;;;;;;;0.40;0.40;;;7.60;99.90;;;;;;5080664;28;20449;-81
2024/01/26 06:09:59;;;;;;;0.60;0.40;;;7.60;99.90;;;;;;5079744;28;20484;-81
2024/01/26 06:12:26;;;;;;;0.70;0.60;;;7.70;99.90;;;;;;5080684;28;20441;-81
2024/01/26 06:14:53;;;;;;;1.27;0.50;;;7.70;99.90;;;;;;5089875;28;20425;-80
2024/01/26 06:17:19;;;;;;;0.40;0.40;;;7.80;99.90;;;;;;5085327;28;20440;-81
2024/01/26 06:19:46;;;;;;;0.57;0.27;;;7.80;99.90;;;;;;5076696;28;20832;-81
2024/01/26 06:22:13;;;;;;;0.47;0.47;;;7.80;99.90;;;;;;5077267;28;20444;-81
2024/01/26 06:24:41;;;;;;;0.30;0.30;;;7.90;99.90;;;;;;5076935;28;20476;-81
2024/01/26 06:27:08;;;;;;;0.50;0.50;;;7.90;99.90;;;;;;5077546;28;20440;-80
2024/01/26 06:29:35;;;;;;;0.30;0.30;;;8.00;99.90;;;;;;5077032;28;20467;-81
2024/01/26 06:32:01;;;;;;;0.50;0.47;;;8.00;99.90;;;;;;5077240;28;20942;-81
2024/01/26 06:34:28;;;;;;;0.30;0.30;;;8.00;99.90;;;;;;5080438;28;20436;-81
2024/01/26 06:36:55;;;;;;;1.00;0.37;;;8.10;99.90;;;;;;5081164;28;20441;-82
2024/01/26 06:39:22;;;;;;;0.40;0.40;;;8.10;99.90;;;;;;5081128;28;20468;-81
2024/01/26 06:41:50;;;;;;;1.03;0.47;;;8.10;99.90;;;;;;5081004;28;20926;-82
2024/01/26 06:44:17;;;;;;;0.67;0.40;;;8.20;99.90;;;;;;5080952;28;20502;-81
2024/01/26 06:46:43;;;;;;;0.30;0.30;;;8.20;99.90;;;;;;5080473;28;20902;-81
2024/01/26 06:49:10;;;;;;;0.40;0.40;;;8.20;99.90;;;;;;5080114;28;20552;-81
2024/01/26 06:51:38;;;;;;;1.33;0.40;;;8.30;99.90;;;;;;5079650;28;20453;-81
2024/01/26 06:54:05;;;;;;;0.40;0.30;;;8.30;99.90;;;;;;5079972;28;20942;-82
2024/01/26 06:56:31;;;;;;;0.43;0.33;;;8.30;99.90;;;;;;5080181;28;20455;-81
2024/01/26 06:58:59;;;;;;;0.30;0.30;;;8.30;99.90;;;;;;5080063;28;20468;-81
2024/01/26 07:01:26;;;;;;;0.30;0.27;;;8.30;99.90;;;;;;5079035;28;20449;-81
2024/01/26 07:03:53;;;;;;;0.30;0.30;;;8.40;99.90;;;;;;5079529;28;20850;-81
2024/01/26 07:06:20;;;;;;;0.37;0.30;;;8.40;99.90;;;;;;5079535;28;20441;-81
2024/01/26 07:08:47;;;;;;;0.30;0.30;;;8.40;99.90;;;;;;5079548;28;20484;-81
2024/01/26 07:11:16;;;;;;;0.37;0.30;;;8.50;99.90;;;;;;5079295;28;20515;-81
2024/01/26 07:13:43;;;;;;;0.40;0.30;;;8.50;99.90;;;;;;5078995;28;20437;-81
2024/01/26 07:16:11;;;;;;;0.40;0.30;;;8.60;99.90;;;;;;5078700;28;20484;-81
2024/01/26 07:18:38;;;;;;;0.40;0.40;;;8.60;99.90;;;;;;5078769;28;20445;-81
2024/01/26 07:21:10;;;;;;;1.80;0.43;;;8.60;99.90;;;;;;5079205;28;20452;-81
2024/01/26 07:23:39;;;;;;;0.30;0.30;;;8.60;99.90;;;;;;5078673;28;20477;-81
2024/01/26 07:26:07;;;;;;;0.40;0.40;;;8.60;99.90;;;;;;5078853;28;20441;-81
2024/01/26 07:28:34;;;;;;;0.67;0.50;;;8.60;99.90;;;;;;5077896;28;20448;-81
2024/01/26 07:31:00;;;;;;;0.30;0.30;;;8.70;99.90;;;;;;5078810;28;20457;-81
2024/01/26 07:33:28;;;;;;;0.90;0.40;;;8.70;99.90;;;;;;5077907;28;20452;-81
2024/01/26 07:35:55;;;;;;;0.70;0.47;;;8.70;99.90;;;;;;5078140;28;20445;-81
2024/01/26 07:38:22;;;;;;;0.50;0.40;;;8.70;99.90;;;;;;5078571;28;20471;-81
2024/01/26 07:40:48;;;;;;;0.70;0.40;;;8.80;99.90;;;;;;5075353;28;20425;-80
2024/01/26 07:43:15;;;;;;;6.97;0.40;;;8.80;99.90;;;;;;5077438;28;20481;-81
2024/01/26 07:45:42;;;;;;;1.93;0.77;;;8.80;99.90;;;;;;5078803;28;20449;-81
2024/01/26 07:48:12;;;;;;;0.70;0.40;;;8.80;99.90;;;;;;5077757;28;20972;-81
2024/01/26 07:50:40;;;;;;;1.90;0.50;;;8.70;99.90;;;;;;5078089;28;20882;-81
2024/01/26 07:53:06;;;;;;;0.40;0.40;;;8.80;99.90;;;;;;5077588;28;20448;-81
2024/01/26 07:55:33;;;;;;;0.40;0.40;;;8.80;99.90;;;;;;5077317;28;20480;-81
2024/01/26 07:58:00;;;;;;;0.40;0.40;;;8.80;99.90;;;;;;5078190;28;20449;-81
2024/01/26 08:00:27;;;;;;;0.40;0.40;;;8.80;99.90;;;;;;5078413;28;20465;-81
2024/01/26 08:02:54;;;;;;;0.40;0.40;;;8.80;99.90;;;;;;5078486;28;20453;-81
2024/01/26 08:05:21;;;;;;;0.43;0.30;;;8.90;99.90;;;;;;5078972;28;20803;-81
2024/01/26 08:07:49;;;;;;;0.50;0.40;;;8.90;99.90;;;;;;5078071;28;20451;-81
2024/01/26 08:10:16;;;;;;;0.40;0.40;;;8.90;99.90;;;;;;5077978;28;20842;-81
2024/01/26 08:12:45;;;;;;;1.83;0.50;;;8.90;99.90;;;;;;5083143;28;20441;-81
2024/01/26 08:15:10;;;;;;;0.40;0.40;;;8.90;99.90;;;;;;5098403;28;20440;-80
2024/01/26 08:17:37;;;;;;;0.40;0.40;;;9.10;99.90;;;;;;5097331;28;20441;-81
2024/01/26 08:20:05;;;;;;;1.37;0.40;;;9.20;99.90;;;;;;5095555;28;20222;-81
2024/01/26 08:22:32;;;;;;;0.70;0.50;;;9.20;99.90;;;;;;5092086;28;20957;-81
2024/01/26 08:25:01;;;;;;;0.60;0.50;;;9.20;99.90;;;;;;5088115;28;20483;-81
2024/01/26 08:27:28;;;;;;;1.03;0.60;;;9.30;99.90;;;;;;5084342;28;20922;-81
2024/01/26 08:29:55;;;;;;;0.80;0.50;;;9.40;99.90;;;;;;5091715;28;20481;-81
2024/01/26 08:32:21;;;;;;;0.50;0.47;;;9.40;99.90;;;;;;5076666;28;20449;-81
2024/01/26 08:34:48;;;;;;;0.70;0.50;;;9.50;99.90;;;;;;5077832;28;20441;-81
2024/01/26 08:37:15;;;;;;;1.27;0.50;;;9.50;99.90;;;;;;5076549;28;20441;-81
2024/01/26 08:39:44;;;;;;;0.83;0.40;;;9.50;99.90;;;;;;5076758;28;20465;-81
2024/01/26 08:42:12;;;;;;;0.80;0.47;;;9.50;99.90;;;;;;5076866;28;20437;-81
2024/01/26 08:44:39;;;;;;;0.60;0.40;;;9.60;99.90;;;;;;5076631;28;20480;-81
2024/01/26 08:47:07;;;;;;;0.30;0.30;;;9.50;99.90;;;;;;5076639;28;20445;-81
2024/01/26 08:49:34;;;;;;;0.40;0.40;;;9.60;99.90;;;;;;5076786;28;20457;-81
2024/01/26 08:52:01;;;;;;;0.50;0.50;;;9.70;99.90;;;;;;5077277;28;20453;-81
2024/01/26 08:54:28;;;;;;;0.33;0.33;;;9.70;99.90;;;;;;5077453;28;20437;-81
2024/01/26 08:56:56;;;;;;;1.43;0.40;;;9.80;99.90;;;;;;5076780;28;20499;-81
2024/01/26 08:59:24;;;;;;;0.63;0.40;;;9.80;99.90;;;;;;5076898;28;20473;-81
2024/01/26 09:01:50;;;;;;;0.50;0.40;;;9.80;99.90;;;;;;5077067;28;20445;-81
2024/01/26 09:04:17;;;;;;;0.50;0.37;;;9.80;99.90;;;;;;5076551;28;20852;-81
2024/01/26 09:06:44;;;;;;;0.73;0.73;;;9.80;99.90;;;;;;5077695;28;20433;-80
2024/01/26 09:09:12;;;;;;;0.67;0.47;;;9.80;99.90;;;;;;5076742;28;20481;-81
2024/01/26 09:11:38;;;;;;;1.13;1.03;;;9.80;99.90;;;;;;5077559;28;20448;-81
2024/01/26 09:14:05;;;;;;;0.40;0.40;;;9.80;99.90;;;;;;5077212;28;20447;-81
2024/01/26 09:16:33;;;;;;;0.40;0.40;;;9.90;99.90;;;;;;5077332;28;20452;-81
2024/01/26 09:19:00;;;;;;;0.60;0.30;;;10.00;99.90;;;;;;5076865;28;20465;-81
2024/01/26 09:21:26;;;;;;;0.50;0.40;;;10.10;99.90;;;;;;5076686;28;20444;-81
2024/01/26 09:23:53;;;;;;;0.67;0.50;;;10.10;99.90;;;;;;5077430;28;20485;-81
2024/01/26 09:26:21;;;;;;;0.50;0.50;;;10.10;99.90;;;;;;5082134;28;20819;-81
2024/01/26 09:28:48;;;;;;;0.50;0.40;;;10.10;99.90;;;;;;5080836;28;20973;-81
2024/01/26 09:31:15;;;;;;;0.50;0.40;;;10.10;99.90;;;;;;5081574;28;20458;-81
2024/01/26 09:33:43;;;;;;;0.40;0.40;;;10.00;99.90;;;;;;5081630;28;20471;-81
2024/01/26 09:36:10;;;;;;;0.50;0.47;;;9.80;99.90;;;;;;5080869;28;20906;-81
2024/01/26 09:38:36;;;;;;;0.40;0.30;;;9.90;99.90;;;;;;5081235;28;20445;-81
2024/01/26 09:41:03;;;;;;;0.40;0.30;;;9.90;99.90;;;;;;5080791;28;20444;-81
2024/01/26 09:43:30;;;;;;;0.67;0.43;;;9.90;99.90;;;;;;5081050;28;20448;-81
2024/01/26 09:45:57;;;;;;;0.40;0.30;;;9.90;99.90;;;;;;5080709;28;20440;-81
2024/01/26 09:48:25;;;;;;;0.77;0.50;;;9.90;99.90;;;;;;5080705;28;20471;-80
2024/01/26 09:50:53;;;;;;;0.70;0.50;;;10.00;99.90;;;;;;5080750;28;20451;-81
2024/01/26 09:53:20;;;;;;;0.40;0.40;;;10.10;99.90;;;;;;5080419;28;20437;-81
2024/01/26 09:55:48;;;;;;;0.30;0.30;;;10.30;99.90;;;;;;5080991;28;20535;-81
2024/01/26 09:58:14;;;;;;;1.47;0.70;;;10.40;99.90;;;;;;5079889;28;20453;-81
2024/01/26 10:00:44;;;;;;;0.60;0.60;;;10.60;99.90;;;;;;5079599;28;20456;-81
2024/01/26 10:03:11;;;;;;;0.43;0.43;;;10.70;99.90;;;;;;5080932;28;20449;-81
2024/01/26 10:05:39;;;;;;;0.70;0.40;;;10.70;99.90;;;;;;5079836;28;20484;-81
2024/01/26 10:08:10;;;;;;;0.60;0.40;;;10.70;99.90;;;;;;5079959;28;20487;-80
2024/01/26 10:10:37;;;;;;;1.53;0.50;;;10.70;99.90;;;;;;5079659;28;20471;-81
2024/01/26 10:13:06;;;;;;;0.97;0.60;;;10.60;99.90;;;;;;5079444;28;20949;-81
2024/01/26 10:15:33;;;;;;;1.33;0.43;;;10.60;99.90;;;;;;5080500;28;20445;-81
2024/01/26 10:18:01;;;;;;;0.40;0.40;;;10.60;99.90;;;;;;5079503;28;20453;-81
2024/01/26 10:20:28;;;;;;;0.50;0.50;;;10.60;99.90;;;;;;5079687;28;20817;-81
2024/01/26 10:22:56;;;;;;;0.80;0.40;;;10.60;99.90;;;;;;5079476;28;20433;-81
2024/01/26 10:25:24;;;;;;;0.40;0.33;;;10.60;99.90;;;;;;5080866;28;20465;-81
2024/01/26 10:27:51;;;;;;;0.40;0.40;;;10.60;99.90;;;;;;5082415;28;20440;-81
2024/01/26 10:30:19;;;;;;;1.63;0.50;;;10.60;99.90;;;;;;5081251;28;20468;-81
2024/01/26 10:32:47;;;;;;;0.50;0.50;;;10.70;99.90;;;;;;5081080;28;20885;-81
2024/01/26 10:35:18;;;;;;;1.17;1.07;;;10.60;99.90;;;;;;5080769;28;20452;-81
2024/01/26 10:37:46;;;;;;;0.40;0.30;;;10.70;99.90;;;;;;5080358;28;20472;-81
2024/01/26 10:40:16;;;;;;;0.30;0.30;;;10.60;99.90;;;;;;5080796;28;20508;-81
2024/01/26 10:42:46;;;;;;;0.60;0.50;;;10.70;99.90;;;;;;5092512;28;20781;-80
2024/01/26 10:45:15;;;;;;;1.37;0.40;;;10.80;99.90;;;;;;5077391;28;20514;-80
2024/01/26 10:47:43;;;;;;;0.40;0.40;;;10.80;99.90;;;;;;5076848;28;20484;-81
2024/01/26 10:50:11;;;;;;;0.60;0.37;;;11.00;99.90;;;;;;5077042;28;20515;-80
2024/01/26 10:52:39;;;;;;;0.60;0.50;;;11.00;99.90;;;;;;5077347;28;20455;-81
2024/01/26 10:55:07;;;;;;;2.43;0.40;;;11.10;99.90;;;;;;5077495;28;20441;-81
2024/01/26 10:57:34;;;;;;;0.93;0.70;;;11.10;99.90;;;;;;5077578;28;20527;-81
2024/01/26 11:00:04;;;;;;;0.90;0.50;;;11.10;99.90;;;;;;5077519;28;20515;-81
2024/01/26 11:02:34;;;;;;;0.43;0.43;;;11.20;99.90;;;;;;5077952;28;20429;-81
2024/01/26 11:05:02;;;;;;;0.80;0.67;;;11.20;99.90;;;;;;5077899;28;20897;-80
2024/01/26 11:07:31;;;;;;;1.93;0.50;;;11.20;99.90;;;;;;5078220;28;20449;-80
2024/01/26 11:10:02;;;;;;;0.40;0.40;;;11.30;99.90;;;;;;5078264;28;20481;-80
2024/01/26 11:12:32;;;;;;;0.50;0.40;;;11.30;99.90;;;;;;5078544;28;20463;-80
2024/01/26 11:15:08;;;;;;;0.90;0.60;;;11.40;99.90;;;;;;5078107;28;20451;-80
2024/01/26 11:17:43;;;;;;;0.77;0.43;;;11.30;99.90;;;;;;5078590;28;20425;-80
2024/01/26 11:20:18;;;;;;;0.40;0.40;;;11.30;99.90;;;;;;5078741;28;20470;-80
2024/01/26 11:22:45;;;;;;;0.50;0.50;;;11.00;99.90;;;;;;5078430;28;20522;-80
2024/01/26 11:25:20;;;;;;;0.40;0.40;;;10.90;99.90;;;;;;5078761;28;20835;-80
2024/01/26 11:27:47;;;;;;;0.50;0.40;;;10.80;99.90;;;;;;5078821;28;20471;-80
2024/01/26 11:30:24;;;;;;;0.30;0.30;;;10.70;99.90;;;;;;5078305;28;20892;-81
2024/01/26 11:32:51;;;;;;;1.17;0.70;;;10.70;99.90;;;;;;5078266;28;20414;-80
2024/01/26 11:35:19;;;;;;;3.70;0.60;;;10.70;99.90;;;;;;5078405;28;20440;-80
2024/01/26 11:37:46;;;;;;;0.40;0.33;;;10.70;99.90;;;;;;5079173;28;20456;-81
2024/01/26 11:40:14;;;;;;;1.53;0.60;;;10.80;99.90;;;;;;5079267;28;20836;-81
2024/01/26 11:42:41;;;;;;;0.50;0.50;;;10.80;99.90;;;;;;5078746;28;20448;-83
2024/01/26 11:45:11;;;;;;;0.60;0.43;;;10.80;99.90;;;;;;5078316;28;20479;-80
2024/01/26 11:47:39;;;;;;;0.50;0.50;;;10.80;99.90;;;;;;5078768;28;20463;-80
2024/01/26 11:50:08;;;;;;;0.60;0.40;;;10.80;99.90;;;;;;5077613;28;20473;-80
2024/01/26 11:52:34;;;;;;;0.50;0.40;;;10.90;99.90;;;;;;5077925;28;20440;-80
2024/01/26 11:55:02;;;;;;;0.50;0.50;;;10.90;99.90;;;;;;5077674;28;20414;-80
2024/01/26 11:57:30;;;;;;;0.40;0.30;;;10.90;99.90;;;;;;5077730;28;20996;-81
2024/01/26 11:59:59;;;;;;;0.40;0.33;;;10.90;99.90;;;;;;5085237;28;20468;-82
2024/01/26 12:02:26;;;;;;;0.50;0.43;;;10.90;99.90;;;;;;5088653;28;20468;-79
2024/01/26 12:04:54;;;;;;;0.53;0.53;;;10.90;99.90;;;;;;5089480;28;20477;-79
2024/01/26 12:07:22;;;;;;;0.40;0.30;;;10.90;99.90;;;;;;5090143;28;20516;-80
2024/01/26 12:09:49;;;;;;;0.60;0.50;;;10.90;99.90;;;;;;5089729;28;20483;-80
2024/01/26 12:12:17;;;;;;;0.40;0.40;;;10.90;99.90;;;;;;5084458;28;20445;-80
2024/01/26 12:14:44;;;;;;;2.90;0.50;;;11.00;99.90;;;;;;5081321;28;20440;-80
2024/01/26 12:17:11;;;;;;;1.17;0.50;;;11.00;99.90;;;;;;5079509;28;20456;-81
2024/01/26 12:19:38;;;;;;;1.17;0.50;;;10.90;99.90;;;;;;5078889;28;20475;-81
2024/01/26 12:22:08;;;;;;;1.43;0.40;;;11.00;99.90;;;;;;5079695;28;20441;-81
2024/01/26 12:24:35;;;;;;;0.40;0.40;;;11.10;99.90;;;;;;5083225;28;20484;-81
2024/01/26 12:27:02;;;;;;;0.80;0.40;;;11.20;99.90;;;;;;5080208;28;20448;-81
2024/01/26 12:29:29;;;;;;;0.50;0.40;;;11.30;99.90;;;;;;5079637;28;20477;-80
2024/01/26 12:32:02;;;;;;;0.47;0.40;;;11.20;99.90;;;;;;5100923;22;20488;-82
2024/01/26 12:34:29;;;;;;;0.60;0.60;;;11.20;99.90;;;;;;5076606;28;20776;-83
2024/01/26 12:36:58;;;;;;;0.40;0.40;;;11.20;99.90;;;;;;5075837;28;20449;-81
2024/01/26 12:39:28;;;;;;;0.33;0.33;;;11.10;99.90;;;;;;5075848;28;20544;-81
2024/01/26 12:41:55;;;;;;;1.23;0.30;;;11.10;99.90;;;;;;5093813;28;20499;-82
2024/01/26 12:44:28;;;;;;;0.97;0.40;;;11.10;99.90;;;;;;5096328;28;20451;-81
2024/01/26 12:46:55;;;;;;;1.13;0.50;;;11.10;99.90;;;;;;5117273;22;20650;-81
2024/01/26 12:49:22;;;;;;;0.40;0.33;;;11.10;99.90;;;;;;5076597;28;20410;-81
2024/01/26 12:51:48;;;;;;;0.40;0.40;;;11.10;99.90;;;;;;5076755;28;20436;-81
2024/01/26 12:54:15;;;;;;;3.60;0.50;;;11.10;99.90;;;;;;5077832;28;20441;-81
2024/01/26 12:56:43;;;;;;;0.70;0.50;;;11.10;99.90;;;;;;5080102;28;20429;-82